createdAt,value
2022-09-16T00:01:35.473Z,1.13
2022-09-16T00:06:36.968Z,1.40
2022-09-16T00:11:38.539Z,1.13
2022-09-16T00:16:40.187Z,1.17
2022-09-16T00:21:41.754Z,1.30
2022-09-16T00:26:43.650Z,1.08
2022-09-16T00:31:45.419Z,1.33
2022-09-16T00:36:47.004Z,1.10
2022-09-16T00:41:48.626Z,1.00
2022-09-16T00:46:50.318Z,1.10
2022-09-16T00:51:57.433Z,1.10
2022-09-16T00:57:00.837Z,1.30
2022-09-16T01:02:08.988Z,1.00
2022-09-16T01:07:10.741Z,1.50
2022-09-16T01:12:12.290Z,1.77
2022-09-16T01:17:42.373Z,1.30
2022-09-16T01:23:16.166Z,0.75
2022-09-16T01:28:44.895Z,1.23
2022-09-16T01:33:52.376Z,1.80
2022-09-16T01:39:15.931Z,1.73
2022-09-16T01:44:39.641Z,0.80
2022-09-16T01:49:46.130Z,0.93
2022-09-16T01:55:01.019Z,1.60
2022-09-16T02:00:09.515Z,1.48
2022-09-16T02:05:32.812Z,1.38
2022-09-16T02:10:57.324Z,1.35
2022-09-16T02:16:04.414Z,1.88
2022-09-16T02:21:10.624Z,2.22
2022-09-16T02:26:17.847Z,1.60
2022-09-16T02:31:27.286Z,1.83
2022-09-16T02:36:31.271Z,1.42
2022-09-16T02:41:32.902Z,1.90
2022-09-16T02:46:46.405Z,1.80
2022-09-16T02:52:27.324Z,2.42
2022-09-16T02:57:29.396Z,1.88
2022-09-16T03:02:33.377Z,1.95
2022-09-16T03:07:35.722Z,2.20
2022-09-16T03:12:58.436Z,1.42
2022-09-16T03:18:02.748Z,1.60
2022-09-16T03:23:26.236Z,1.85
2022-09-16T03:28:41.736Z,1.85
2022-09-16T03:33:51.164Z,2.28
2022-09-16T03:38:54.658Z,1.85
2022-09-16T03:44:03.562Z,1.92
2022-09-16T03:49:05.491Z,2.28
2022-09-16T03:54:07.008Z,2.67
2022-09-16T03:59:08.628Z,2.35
2022-09-16T04:04:10.231Z,1.90
2022-09-16T04:09:12.628Z,1.98
2022-09-16T04:14:14.335Z,2.28
2022-09-16T04:19:15.815Z,1.65
2022-09-16T04:24:17.593Z,1.63
2022-09-16T04:29:19.057Z,1.80
2022-09-16T04:34:20.560Z,1.90
2022-09-16T04:39:22.077Z,1.85
2022-09-16T04:44:23.643Z,1.33
2022-09-16T04:49:25.194Z,1.65
2022-09-16T04:54:26.743Z,2.00
2022-09-16T04:59:28.328Z,1.52
2022-09-16T05:04:29.849Z,1.85
2022-09-16T05:09:31.388Z,1.83
2022-09-16T05:14:33.035Z,1.85
2022-09-16T05:19:34.544Z,2.08
2022-09-16T05:24:36.066Z,2.40
2022-09-16T05:29:37.562Z,2.05
2022-09-16T05:34:39.156Z,1.90
2022-09-16T05:39:40.652Z,2.22
2022-09-16T05:44:42.388Z,1.92
2022-09-16T05:49:43.878Z,1.80
2022-09-16T05:54:45.448Z,2.15
2022-09-16T05:59:47.030Z,2.03
2022-09-16T06:04:48.743Z,1.70
2022-09-16T06:09:50.278Z,1.92
2022-09-16T06:14:51.933Z,1.55
2022-09-16T06:19:53.571Z,2.17
2022-09-16T06:24:55.165Z,1.65
2022-09-16T06:29:56.683Z,1.30
2022-09-16T06:34:58.346Z,1.40
2022-09-16T06:40:00.043Z,1.92
2022-09-16T06:45:01.567Z,1.35
2022-09-16T06:50:04.372Z,1.45
2022-09-16T06:55:06.423Z,1.45
2022-09-16T07:00:08.789Z,0.90
2022-09-16T07:05:10.304Z,1.40
2022-09-16T07:10:11.948Z,1.17
2022-09-16T07:15:16.333Z,1.17
2022-09-16T07:20:17.977Z,1.08
2022-09-16T07:25:19.603Z,1.10
2022-09-16T07:30:21.128Z,1.88
2022-09-16T07:35:23.044Z,2.13
2022-09-16T07:40:27.830Z,0.82
2022-09-16T07:45:31.337Z,0.70
2022-09-16T07:50:32.889Z,1.58
2022-09-16T07:55:35.377Z,1.20
2022-09-16T08:00:36.899Z,0.90
2022-09-16T08:05:38.527Z,1.10
2022-09-16T08:10:40.054Z,1.25
2022-09-16T08:15:41.634Z,0.75
2022-09-16T08:20:44.269Z,1.30
2022-09-16T08:25:46.121Z,1.00
2022-09-16T08:30:51.291Z,1.05
2022-09-16T08:36:02.862Z,1.00
2022-09-16T08:41:07.983Z,1.00
2022-09-16T08:46:27.192Z,0.82
2022-09-16T08:51:28.765Z,1.20
2022-09-16T08:56:33.784Z,0.85
2022-09-16T09:01:57.270Z,0.75
2022-09-16T09:07:17.590Z,1.15
2022-09-16T09:12:38.063Z,0.77
2022-09-16T09:18:16.151Z,0.68
2022-09-16T09:23:39.368Z,0.65
2022-09-16T09:29:21.366Z,1.10
2022-09-16T09:34:28.976Z,0.95
2022-09-16T09:39:52.361Z,0.80
2022-09-16T09:45:33.893Z,0.57
2022-09-16T09:50:41.907Z,0.80
2022-09-16T09:55:43.572Z,0.50
2022-09-16T10:00:45.344Z,0.60
2022-09-16T10:05:47.852Z,0.82
2022-09-16T10:10:55.210Z,0.90
2022-09-16T10:16:18.921Z,0.90
2022-09-16T10:21:20.784Z,0.60
2022-09-16T10:26:26.997Z,0.60
2022-09-16T10:31:47.232Z,0.50
2022-09-16T10:37:13.905Z,0.70
2022-09-16T10:42:21.634Z,0.50
2022-09-16T10:47:27.108Z,0.90
2022-09-16T10:52:30.665Z,0.70
2022-09-16T10:57:33.712Z,0.70
2022-09-16T11:03:12.744Z,0.57
2022-09-16T11:08:48.231Z,0.50
2022-09-16T11:14:22.137Z,0.55
2022-09-16T11:19:52.252Z,0.43
2022-09-16T11:25:28.910Z,0.57
2022-09-16T11:30:40.372Z,0.30
2022-09-16T11:36:11.135Z,0.73
2022-09-16T11:41:27.648Z,0.47
2022-09-16T11:46:56.353Z,0.93
2022-09-16T11:52:18.904Z,0.50
2022-09-16T11:57:29.650Z,0.88
2022-09-16T12:02:40.327Z,0.90
2022-09-16T12:08:14.163Z,0.60
2022-09-16T12:13:33.482Z,0.70
2022-09-16T12:18:52.432Z,0.70
2022-09-16T12:24:06.129Z,0.38
2022-09-16T12:29:22.633Z,0.43
2022-09-16T12:39:28.819Z,0.85
2022-09-16T12:44:39.466Z,1.08
2022-09-16T12:49:49.781Z,0.50
2022-09-16T12:55:09.885Z,0.52
2022-09-16T13:00:18.595Z,0.50
2022-09-16T13:05:30.991Z,0.40
2022-09-16T13:10:55.870Z,0.70
2022-09-16T13:16:02.247Z,1.83
2022-09-16T13:21:29.777Z,1.63
2022-09-16T13:26:45.048Z,0.90
2022-09-16T13:31:48.268Z,0.98
2022-09-16T13:36:50.157Z,1.35
2022-09-16T13:41:51.699Z,0.50
2022-09-16T13:46:53.680Z,0.40
2022-09-16T13:51:55.317Z,0.25
2022-09-16T13:57:38.540Z,0.57
2022-09-16T14:03:18.248Z,0.60
2022-09-16T14:08:51.600Z,0.47
2022-09-16T14:14:05.520Z,0.80
2022-09-16T14:19:13.632Z,0.50
2022-09-16T14:24:16.468Z,0.50
2022-09-16T14:29:17.988Z,0.47
2022-09-16T14:34:28.762Z,0.68
2022-09-16T14:39:32.192Z,0.60
2022-09-16T14:44:37.935Z,0.75
2022-09-16T14:49:39.962Z,1.20
2022-09-16T14:54:44.138Z,0.52
2022-09-16T14:59:46.463Z,0.63
2022-09-16T15:04:53.984Z,0.80
2022-09-16T15:10:04.661Z,0.90
2022-09-16T15:15:27.629Z,0.40
2022-09-16T15:20:37.356Z,0.45
2022-09-16T15:25:38.924Z,1.05
2022-09-16T15:30:46.835Z,0.75
2022-09-16T15:35:49.514Z,0.40
2022-09-16T15:41:02.243Z,0.52
2022-09-16T15:46:17.823Z,0.50
2022-09-16T15:51:45.038Z,0.90
2022-09-16T15:56:56.555Z,0.52
2022-09-16T16:02:01.468Z,0.50
2022-09-16T16:07:08.952Z,0.77
2022-09-16T16:12:19.360Z,0.65
2022-09-16T16:17:21.914Z,0.70
2022-09-16T16:22:23.889Z,1.25
2022-09-16T16:27:26.025Z,1.02
2022-09-16T16:32:28.398Z,0.82
2022-09-16T16:37:46.847Z,0.60
2022-09-16T16:42:48.950Z,0.70
2022-09-16T16:47:50.463Z,1.10
2022-09-16T16:52:52.019Z,0.70
2022-09-16T16:57:53.530Z,0.98
2022-09-16T17:02:55.195Z,1.10
2022-09-16T17:07:56.747Z,0.82
2022-09-16T17:12:58.301Z,0.77
2022-09-16T17:17:59.973Z,0.90
2022-09-16T17:23:01.629Z,0.73
2022-09-16T17:28:03.137Z,0.77
2022-09-16T17:33:07.592Z,0.60
2022-09-16T17:38:10.232Z,0.95
2022-09-16T17:43:11.828Z,0.70
2022-09-16T17:48:13.348Z,0.90
2022-09-16T17:53:14.912Z,1.30
2022-09-16T17:58:16.849Z,1.10
2022-09-16T18:03:18.394Z,1.08
2022-09-16T18:08:20.010Z,0.77
2022-09-16T18:13:21.505Z,1.30
2022-09-16T18:18:23.035Z,1.80
2022-09-16T18:23:24.621Z,1.67
2022-09-16T18:28:26.163Z,1.88
2022-09-16T18:33:27.803Z,1.60
2022-09-16T18:38:30.528Z,2.42
2022-09-16T18:43:32.032Z,1.77
2022-09-16T18:48:33.559Z,2.10
2022-09-16T18:53:35.152Z,1.85
2022-09-16T18:58:36.672Z,1.75
2022-09-16T19:03:38.590Z,2.40
2022-09-16T19:08:40.178Z,1.75
2022-09-16T19:13:43.085Z,1.70
2022-09-16T19:18:44.726Z,1.77
2022-09-16T19:23:48.547Z,1.77
2022-09-16T19:28:50.161Z,2.30
2022-09-16T19:33:51.730Z,1.38
2022-09-16T19:38:54.423Z,1.42
2022-09-16T19:43:58.228Z,1.13
2022-09-16T19:48:59.888Z,1.45
2022-09-16T19:54:01.908Z,1.20
2022-09-16T19:59:03.505Z,1.40
2022-09-16T20:04:07.376Z,1.20
2022-09-16T20:09:10.980Z,2.17
2022-09-16T20:14:18.259Z,0.95
2022-09-16T20:19:20.677Z,1.23
2022-09-16T20:24:25.391Z,1.08
2022-09-16T20:29:26.895Z,1.27
2022-09-16T20:34:28.472Z,1.33
2022-09-16T20:39:30.008Z,2.20
2022-09-16T20:44:31.643Z,2.85
2022-09-16T20:49:33.129Z,1.42
2022-09-16T20:54:34.701Z,1.13
2022-09-16T20:59:36.197Z,1.48
2022-09-16T21:04:37.774Z,1.27
2022-09-16T21:09:39.270Z,1.10
2022-09-16T21:14:40.793Z,1.00
2022-09-16T21:19:42.310Z,0.93
2022-09-16T21:24:43.835Z,1.05
2022-09-16T21:29:45.414Z,1.30
2022-09-16T21:34:47.052Z,1.27
2022-09-16T21:39:48.746Z,1.20
2022-09-16T21:44:50.284Z,1.15
2022-09-16T21:49:51.815Z,1.02
2022-09-16T21:54:53.312Z,1.02
2022-09-16T21:59:54.801Z,1.40
2022-09-16T22:04:56.426Z,0.98
2022-09-16T22:09:58.005Z,1.20
2022-09-16T22:14:59.498Z,1.10
2022-09-16T22:20:01.138Z,1.65
2022-09-16T22:25:02.745Z,1.10
2022-09-16T22:30:04.558Z,1.20
2022-09-16T22:35:06.653Z,1.00
2022-09-16T22:40:08.562Z,1.13
2022-09-16T22:45:10.534Z,1.40
2022-09-16T22:50:12.108Z,0.70
2022-09-16T22:55:14.770Z,2.10
2022-09-16T23:00:16.424Z,1.40
2022-09-16T23:05:17.922Z,1.05
2022-09-16T23:10:19.422Z,1.88
2022-09-16T23:15:20.903Z,1.20
2022-09-16T23:20:22.395Z,1.15
2022-09-16T23:25:24.988Z,1.10
2022-09-16T23:30:26.606Z,1.48
2022-09-16T23:35:28.064Z,1.23
2022-09-16T23:40:29.846Z,1.08
2022-09-16T23:45:34.135Z,1.20
2022-09-16T23:50:35.646Z,1.88
2022-09-16T23:55:43.728Z,1.60
